createdAt,value
2022-11-05T00:02:40.273Z,8.63
2022-11-05T00:14:31.094Z,10.82
2022-11-05T00:17:05.940Z,10.38
2022-11-05T00:19:34.228Z,6.60
2022-11-05T00:22:23.726Z,9.38
2022-11-05T00:25:13.513Z,10.57
2022-11-05T00:27:55.398Z,9.52
2022-11-05T00:30:31.726Z,7.47
2022-11-05T00:33:03.874Z,8.80
2022-11-05T00:35:30.849Z,9.40
2022-11-05T00:37:57.819Z,6.53
2022-11-05T00:40:26.582Z,10.35
2022-11-05T00:43:14.197Z,6.90
2022-11-05T00:45:42.114Z,10.00
2022-11-05T00:48:29.673Z,8.55
2022-11-05T00:51:05.030Z,9.93
2022-11-05T00:53:37.085Z,8.60
2022-11-05T00:56:04.790Z,9.63
2022-11-05T00:58:32.918Z,13.02
2022-11-05T01:01:04.349Z,7.70
2022-11-05T01:11:51.883Z,12.70
2022-11-05T01:14:20.630Z,10.77
2022-11-05T01:17:01.205Z,11.55
2022-11-05T01:19:30.704Z,10.48
2022-11-05T01:22:00.012Z,11.65
2022-11-05T01:24:28.193Z,8.55
2022-11-05T01:26:56.498Z,9.07
2022-11-05T01:40:23.433Z,9.77
2022-11-05T01:45:37.610Z,9.63
2022-11-05T01:48:19.162Z,8.85
2022-11-05T01:50:58.349Z,7.25
2022-11-05T01:59:40.890Z,11.15
2022-11-05T02:02:10.560Z,9.05
2022-11-05T02:04:52.256Z,8.18
2022-11-05T02:07:21.637Z,11.90
2022-11-05T02:12:48.699Z,9.77
2022-11-05T02:15:51.093Z,9.57
2022-11-05T02:18:42.279Z,8.27
2022-11-05T02:22:12.173Z,10.27
2022-11-05T02:25:08.591Z,9.88
2022-11-05T02:27:49.879Z,8.63
2022-11-05T02:30:39.725Z,11.20
2022-11-05T02:33:22.367Z,6.25
2022-11-05T02:36:26.097Z,9.82
2022-11-05T02:39:16.582Z,8.13
2022-11-05T02:42:04.523Z,8.63
2022-11-05T02:45:17.685Z,10.88
2022-11-05T02:48:07.581Z,7.93
2022-11-05T02:50:54.319Z,8.20
2022-11-05T02:53:33.778Z,6.28
2022-11-05T02:56:23.908Z,9.07
2022-11-05T02:58:50.819Z,7.15
2022-11-05T03:01:18.672Z,7.75
2022-11-05T03:03:54.906Z,8.93
2022-11-05T03:06:52.395Z,8.43
2022-11-05T03:10:22.953Z,9.50
2022-11-05T03:13:15.254Z,7.95
2022-11-05T03:15:56.448Z,9.93
2022-11-05T03:18:54.836Z,8.80
2022-11-05T03:22:00.454Z,7.93
2022-11-05T03:24:35.407Z,8.25
2022-11-05T03:29:49.516Z,9.10
2022-11-05T03:32:20.916Z,9.13
2022-11-05T03:35:00.040Z,11.00
2022-11-05T03:37:33.695Z,10.50
2022-11-05T03:40:06.747Z,10.07
2022-11-05T03:42:38.665Z,11.30
2022-11-05T03:45:17.696Z,10.20
2022-11-05T03:47:50.462Z,10.13
2022-11-05T03:50:34.757Z,9.95
2022-11-05T03:53:17.164Z,8.93
2022-11-05T03:56:11.952Z,11.35
2022-11-05T03:58:44.755Z,12.60
2022-11-05T04:01:12.388Z,12.50
2022-11-05T04:03:39.294Z,10.50
2022-11-05T04:09:40.332Z,9.45
2022-11-05T04:12:28.629Z,14.82
2022-11-05T04:14:55.883Z,12.52
2022-11-05T04:17:23.638Z,12.95
2022-11-05T04:20:10.019Z,15.00
2022-11-05T04:22:56.536Z,10.77
2022-11-05T04:25:23.859Z,10.82
2022-11-05T04:27:51.571Z,8.93
2022-11-05T04:30:22.673Z,8.35
2022-11-05T04:33:09.946Z,9.80
2022-11-05T04:35:54.269Z,7.53
2022-11-05T04:38:35.906Z,8.20
2022-11-05T04:41:20.726Z,7.85
2022-11-05T04:43:50.262Z,8.35
2022-11-05T04:46:18.222Z,9.77
2022-11-05T04:48:49.459Z,8.38
2022-11-05T04:51:19.202Z,11.05
2022-11-05T04:53:52.603Z,10.70
2022-11-05T04:56:25.865Z,10.45
2022-11-05T04:58:54.238Z,7.30
2022-11-05T05:01:26.891Z,7.57
2022-11-05T05:03:57.916Z,7.70
2022-11-05T05:06:28.956Z,8.80
2022-11-05T05:09:03.013Z,10.50
2022-11-05T05:11:33.230Z,12.02
2022-11-05T05:14:02.357Z,11.38
2022-11-05T05:16:33.576Z,9.45
2022-11-05T05:19:03.253Z,6.63
2022-11-05T05:21:41.818Z,9.05
2022-11-05T05:24:20.774Z,8.90
2022-11-05T05:26:55.615Z,10.13
2022-11-05T05:29:27.416Z,11.40
2022-11-05T05:32:01.254Z,13.20
2022-11-05T05:34:33.706Z,10.17
2022-11-05T05:37:04.773Z,13.10
2022-11-05T05:39:36.670Z,17.50
2022-11-05T05:42:10.792Z,11.85
2022-11-05T05:44:47.055Z,10.25
2022-11-05T05:47:28.715Z,10.10
2022-11-05T05:50:28.129Z,14.30
2022-11-05T05:53:02.448Z,12.98
2022-11-05T05:55:30.962Z,12.45
2022-11-05T05:58:01.005Z,13.30
2022-11-05T06:00:38.096Z,13.55
2022-11-05T06:03:18.959Z,10.98
2022-11-05T06:05:47.371Z,11.80
2022-11-05T06:08:19.672Z,11.50
2022-11-05T06:10:57.002Z,14.13
2022-11-05T06:13:26.695Z,11.40
2022-11-05T06:16:02.027Z,10.48
2022-11-05T06:18:32.211Z,14.32
2022-11-05T06:21:09.713Z,17.15
2022-11-05T06:26:23.394Z,14.93
2022-11-05T06:28:50.176Z,13.77
2022-11-05T06:31:17.224Z,14.13
2022-11-05T06:33:44.029Z,13.63
2022-11-05T06:36:16.269Z,20.05
2022-11-05T06:38:43.326Z,21.30
2022-11-05T06:41:10.891Z,18.42
2022-11-05T06:43:38.737Z,21.65
2022-11-05T06:46:06.077Z,26.40
2022-11-05T06:48:33.486Z,20.73
2022-11-05T06:51:00.331Z,22.77
2022-11-05T06:53:27.115Z,26.75
2022-11-05T06:55:53.914Z,22.92
2022-11-05T06:58:20.859Z,22.88
2022-11-05T07:00:47.779Z,23.35
2022-11-05T07:03:15.165Z,26.63
2022-11-05T07:05:47.790Z,22.25
2022-11-05T07:08:14.907Z,23.13
2022-11-05T07:10:41.986Z,23.45
2022-11-05T07:13:09.164Z,21.08
2022-11-05T07:15:37.462Z,22.48
2022-11-05T07:18:07.128Z,20.10
2022-11-05T07:20:34.706Z,24.83
2022-11-05T07:23:13.203Z,21.83
2022-11-05T07:25:42.637Z,23.13
2022-11-05T07:28:10.897Z,24.13
2022-11-05T07:30:39.372Z,28.08
2022-11-05T07:33:06.733Z,23.25
2022-11-05T07:35:33.934Z,21.55
2022-11-05T07:38:00.701Z,20.17
2022-11-05T07:40:30.185Z,22.75
2022-11-05T07:43:02.265Z,21.88
2022-11-05T07:45:31.760Z,21.50
2022-11-05T07:48:01.656Z,18.40
2022-11-05T07:50:35.466Z,20.10
2022-11-05T07:53:10.571Z,21.20
2022-11-05T07:55:40.246Z,21.55
2022-11-05T07:58:07.871Z,25.17
2022-11-05T08:00:34.878Z,22.20
2022-11-05T08:03:08.416Z,21.67
2022-11-05T08:05:39.267Z,19.67
2022-11-05T08:08:09.388Z,21.38
2022-11-05T08:10:38.450Z,21.05
2022-11-05T08:13:07.277Z,18.92
2022-11-05T08:15:35.519Z,19.98
2022-11-05T08:18:10.613Z,16.10
2022-11-05T08:20:38.506Z,17.38
2022-11-05T08:23:05.922Z,18.02
2022-11-05T08:25:33.461Z,21.02
2022-11-05T08:28:04.951Z,14.55
2022-11-05T08:30:39.482Z,11.15
2022-11-05T08:33:13.412Z,16.77
2022-11-05T08:35:41.205Z,15.07
2022-11-05T08:38:13.860Z,21.25
2022-11-05T08:40:42.315Z,10.75
2022-11-05T08:43:14.357Z,18.00
2022-11-05T08:45:43.232Z,15.23
2022-11-05T08:48:15.204Z,17.52
2022-11-05T08:50:43.484Z,13.55
2022-11-05T08:53:12.469Z,16.00
2022-11-05T08:55:40.329Z,12.52
2022-11-05T08:58:19.087Z,12.13
2022-11-05T09:03:33.552Z,17.40
2022-11-05T09:06:14.008Z,16.15
2022-11-05T09:08:41.461Z,12.90
2022-11-05T09:11:13.582Z,11.10
2022-11-05T09:13:40.522Z,9.85
2022-11-05T09:19:05.475Z,17.05
2022-11-05T09:21:40.130Z,13.57
2022-11-05T09:24:08.132Z,8.60
2022-11-05T09:26:39.440Z,12.23
2022-11-05T09:29:11.670Z,13.15
2022-11-05T09:31:42.681Z,11.20
2022-11-05T09:34:10.665Z,13.35
2022-11-05T09:36:41.354Z,14.18
2022-11-05T09:39:12.866Z,9.35
2022-11-05T09:41:54.940Z,9.50
2022-11-05T09:44:30.053Z,8.55
2022-11-05T09:49:44.750Z,8.77
2022-11-05T09:52:36.805Z,9.75
2022-11-05T09:55:41.379Z,9.02
2022-11-05T09:58:29.074Z,9.77
2022-11-05T10:00:57.803Z,10.00
2022-11-05T10:03:29.933Z,9.15
2022-11-05T10:06:10.278Z,8.48
2022-11-05T10:08:52.520Z,8.93
2022-11-05T10:11:34.139Z,8.05
2022-11-05T10:14:21.519Z,8.98
2022-11-05T10:17:06.047Z,9.52
2022-11-05T10:19:51.387Z,12.00
2022-11-05T10:22:20.175Z,11.75
2022-11-05T10:24:52.011Z,9.25
2022-11-05T10:27:37.658Z,10.45
2022-11-05T10:30:06.568Z,11.10
2022-11-05T10:32:58.385Z,11.43
2022-11-05T10:35:30.699Z,9.13
2022-11-05T10:37:57.929Z,10.98
2022-11-05T10:41:00.144Z,10.68
2022-11-05T10:44:28.605Z,7.72
2022-11-05T10:47:27.812Z,9.23
2022-11-05T10:50:02.721Z,9.65
2022-11-05T10:52:37.971Z,8.38
2022-11-05T10:57:44.476Z,9.30
2022-11-05T11:00:24.057Z,8.93
2022-11-05T11:03:04.141Z,11.38
2022-11-05T11:05:37.597Z,7.32
2022-11-05T11:08:13.602Z,7.97
2022-11-05T11:11:02.867Z,9.93
2022-11-05T11:14:11.689Z,7.38
2022-11-05T11:16:42.395Z,8.15
2022-11-05T11:19:24.355Z,7.30
2022-11-05T11:22:03.267Z,10.90
2022-11-05T11:24:48.999Z,8.77
2022-11-05T11:27:34.233Z,9.93
2022-11-05T11:30:05.222Z,6.65
2022-11-05T11:32:39.432Z,8.25
2022-11-05T11:35:23.476Z,8.40
2022-11-05T11:37:55.942Z,8.98
2022-11-05T11:40:30.872Z,8.40
2022-11-05T11:43:04.148Z,6.97
2022-11-05T11:45:46.880Z,11.00
2022-11-05T11:48:23.573Z,9.90
2022-11-05T11:50:51.437Z,7.80
2022-11-05T11:53:33.454Z,10.10
2022-11-05T11:56:18.720Z,6.03
2022-11-05T11:58:58.144Z,12.85
2022-11-05T12:02:28.361Z,8.60
2022-11-05T12:05:18.245Z,6.82
2022-11-05T12:07:52.244Z,8.82
2022-11-05T12:10:22.425Z,7.13
2022-11-05T12:13:21.079Z,12.20
2022-11-05T12:15:57.214Z,9.27
2022-11-05T12:18:50.031Z,7.35
2022-11-05T12:22:14.947Z,12.55
2022-11-05T12:25:28.047Z,9.43
2022-11-05T12:29:12.104Z,9.23
2022-11-05T12:31:55.683Z,12.75
2022-11-05T12:34:45.881Z,9.38
2022-11-05T12:37:30.719Z,7.97
2022-11-05T12:40:39.018Z,9.65
2022-11-05T12:43:18.253Z,9.23
2022-11-05T12:45:56.122Z,7.25
2022-11-05T12:48:41.345Z,7.97
2022-11-05T12:51:51.234Z,9.13
2022-11-05T12:54:42.002Z,6.10
2022-11-05T12:57:14.133Z,9.00
2022-11-05T12:59:53.895Z,5.53
2022-11-05T13:02:49.700Z,8.23
2022-11-05T13:08:14.176Z,9.60
2022-11-05T13:10:52.909Z,12.20
2022-11-05T13:13:45.103Z,9.55
2022-11-05T13:16:39.279Z,10.07
2022-11-05T13:19:26.209Z,8.55
2022-11-05T13:22:21.374Z,11.43
2022-11-05T13:25:00.954Z,8.98
2022-11-05T13:28:29.241Z,8.25
2022-11-05T13:31:01.534Z,8.48
2022-11-05T13:33:42.324Z,12.55
2022-11-05T13:36:52.938Z,8.05
2022-11-05T13:39:35.279Z,9.32
2022-11-05T13:42:17.777Z,7.82
2022-11-05T13:45:21.267Z,6.70
2022-11-05T13:48:18.559Z,7.63
2022-11-05T13:51:34.779Z,9.40
2022-11-05T13:54:38.294Z,8.18
2022-11-05T13:57:47.354Z,10.82
2022-11-05T14:00:24.197Z,8.00
2022-11-05T14:03:01.753Z,8.57
2022-11-05T14:05:39.454Z,11.48
2022-11-05T14:08:16.492Z,9.50
2022-11-05T14:11:02.138Z,9.05
2022-11-05T14:13:35.214Z,10.88
2022-11-05T14:16:06.325Z,6.10
2022-11-05T14:18:40.933Z,8.45
2022-11-05T14:21:27.819Z,10.43
2022-11-05T14:24:19.086Z,10.50
2022-11-05T14:27:05.867Z,7.70
2022-11-05T14:29:49.874Z,5.40
2022-11-05T14:32:20.953Z,6.20
2022-11-05T14:35:25.604Z,5.97
2022-11-05T14:38:00.309Z,9.15
2022-11-05T14:40:44.159Z,5.07
2022-11-05T14:43:14.365Z,7.25
2022-11-05T14:46:01.168Z,6.22
2022-11-05T14:48:43.967Z,6.65
2022-11-05T14:51:40.296Z,8.77
2022-11-05T14:54:36.893Z,10.02
2022-11-05T14:57:05.628Z,8.75
2022-11-05T14:59:52.979Z,5.20
2022-11-05T15:02:32.203Z,6.60
2022-11-05T15:05:39.714Z,11.00
2022-11-05T15:08:50.348Z,9.52
2022-11-05T15:11:57.275Z,7.28
2022-11-05T15:15:02.935Z,7.55
2022-11-05T15:17:53.674Z,9.07
2022-11-05T15:20:27.325Z,9.10
2022-11-05T15:23:00.938Z,10.40
2022-11-05T15:25:45.770Z,11.23
2022-11-05T15:28:52.749Z,11.20
2022-11-05T15:31:37.700Z,13.93
2022-11-05T15:34:30.840Z,10.13
2022-11-05T15:37:10.033Z,16.13
2022-11-05T15:39:41.202Z,10.52
2022-11-05T15:42:19.152Z,12.93
2022-11-05T15:44:52.577Z,11.10
2022-11-05T15:47:27.995Z,16.52
2022-11-05T15:50:15.352Z,13.82
2022-11-05T15:52:54.646Z,13.25
2022-11-05T15:55:25.352Z,12.07
2022-11-05T15:58:05.582Z,14.23
2022-11-05T16:00:36.664Z,10.27
2022-11-05T16:03:33.320Z,9.75
2022-11-05T16:06:04.671Z,9.25
2022-11-05T16:08:33.941Z,8.85
2022-11-05T16:13:44.092Z,9.90
2022-11-05T16:16:17.484Z,7.40
2022-11-05T16:18:46.246Z,10.23
2022-11-05T16:21:19.953Z,7.63
2022-11-05T16:24:01.018Z,10.82
2022-11-05T16:27:01.671Z,9.60
2022-11-05T16:29:37.536Z,8.00
2022-11-05T16:32:16.424Z,16.13
2022-11-05T16:34:51.389Z,9.90
2022-11-05T16:37:24.485Z,5.53
2022-11-05T16:39:52.754Z,7.53
2022-11-05T16:42:22.659Z,12.07
2022-11-05T16:44:51.870Z,13.00
2022-11-05T16:50:25.028Z,7.50
2022-11-05T16:52:52.995Z,8.85
2022-11-05T16:55:20.192Z,7.45
2022-11-05T16:57:54.408Z,7.10
2022-11-05T17:00:23.052Z,10.07
2022-11-05T17:02:50.309Z,7.25
2022-11-05T17:05:30.410Z,8.25
2022-11-05T17:07:58.561Z,9.05
2022-11-05T17:10:26.863Z,7.10
2022-11-05T17:12:54.274Z,11.25
2022-11-05T17:15:35.718Z,8.80
2022-11-05T17:18:04.749Z,6.97
2022-11-05T17:20:40.809Z,4.63
2022-11-05T17:23:11.834Z,5.40
2022-11-05T17:25:42.382Z,5.38
2022-11-05T17:28:09.994Z,7.50
2022-11-05T17:30:41.179Z,5.90
2022-11-05T17:33:11.299Z,6.82
2022-11-05T17:35:42.537Z,9.48
2022-11-05T17:38:11.140Z,6.88
2022-11-05T17:40:39.214Z,6.35
2022-11-05T17:43:07.552Z,7.35
2022-11-05T17:45:34.986Z,11.80
2022-11-05T17:48:03.262Z,7.15
2022-11-05T17:50:30.305Z,12.20
2022-11-05T17:52:57.304Z,8.45
2022-11-05T17:55:24.092Z,8.82
2022-11-05T17:57:52.123Z,9.85
2022-11-05T18:00:27.489Z,9.73
2022-11-05T18:02:55.319Z,8.98
2022-11-05T18:05:24.029Z,7.65
2022-11-05T18:07:51.457Z,8.32
2022-11-05T18:10:18.420Z,7.30
2022-11-05T18:12:46.014Z,5.00
2022-11-05T18:15:14.390Z,7.05
2022-11-05T18:17:42.172Z,5.32
2022-11-05T18:20:18.843Z,7.93
2022-11-05T18:22:49.559Z,9.52
2022-11-05T18:25:17.620Z,8.52
2022-11-05T18:27:44.708Z,11.02
2022-11-05T18:30:15.458Z,9.45
2022-11-05T18:32:44.567Z,10.90
2022-11-05T18:35:13.444Z,12.45
2022-11-05T18:37:40.566Z,7.07
2022-11-05T18:40:08.994Z,8.50
2022-11-05T18:42:35.962Z,9.68
2022-11-05T18:45:04.875Z,10.55
2022-11-05T18:47:42.044Z,8.60
2022-11-05T18:50:10.619Z,8.02
2022-11-05T18:52:42.044Z,5.38
2022-11-05T18:55:09.387Z,7.32
2022-11-05T18:57:36.253Z,8.93
2022-11-05T19:00:05.057Z,7.03
2022-11-05T19:02:32.639Z,8.93
2022-11-05T19:05:27.992Z,10.10
2022-11-05T19:07:51.372Z,10.85
2022-11-05T19:10:23.160Z,7.57
2022-11-05T19:12:56.349Z,9.45
2022-11-05T19:15:28.033Z,8.15
2022-11-05T19:18:01.071Z,10.20
2022-11-05T19:20:33.674Z,8.50
2022-11-05T19:23:08.207Z,6.10
2022-11-05T19:25:37.959Z,8.77
2022-11-05T19:28:04.977Z,8.10
2022-11-05T19:30:31.981Z,9.93
2022-11-05T19:32:58.925Z,5.80
2022-11-05T19:35:26.511Z,7.38
2022-11-05T19:38:02.996Z,10.52
2022-11-05T19:40:36.825Z,6.90
2022-11-05T19:43:06.432Z,7.80
2022-11-05T19:45:49.321Z,8.32
2022-11-05T19:48:30.651Z,7.57
2022-11-05T19:50:57.533Z,10.05
2022-11-05T19:53:24.513Z,5.47
2022-11-05T19:55:51.480Z,7.95
2022-11-05T19:58:18.204Z,10.50
2022-11-05T20:00:44.991Z,8.23
2022-11-05T20:03:12.857Z,8.55
2022-11-05T20:05:40.417Z,7.43
2022-11-05T20:08:07.347Z,7.82
2022-11-05T20:10:37.819Z,5.80
2022-11-05T20:13:04.830Z,7.10
2022-11-05T20:15:32.052Z,13.30
2022-11-05T20:17:59.036Z,8.27
2022-11-05T20:20:28.082Z,7.50
2022-11-05T20:22:55.085Z,13.57
2022-11-05T20:25:22.043Z,8.00
2022-11-05T20:27:49.508Z,10.52
2022-11-05T20:30:16.562Z,5.10
2022-11-05T20:32:43.361Z,12.30
2022-11-05T20:35:10.833Z,6.93
2022-11-05T20:37:38.724Z,9.55
2022-11-05T20:40:06.465Z,9.32
2022-11-05T20:42:36.826Z,8.07
2022-11-05T20:45:04.188Z,7.13
2022-11-05T20:47:31.472Z,6.47
2022-11-05T20:49:59.945Z,10.73
2022-11-05T20:52:27.710Z,6.90
2022-11-05T20:54:57.853Z,5.82
2022-11-05T20:57:24.900Z,8.82
2022-11-05T20:59:51.885Z,8.68
2022-11-05T21:02:18.755Z,5.35
2022-11-05T21:04:45.901Z,8.48
2022-11-05T21:07:12.852Z,12.15
2022-11-05T21:09:39.751Z,8.65
2022-11-05T21:12:10.015Z,7.10
2022-11-05T21:14:56.101Z,7.65
2022-11-05T21:17:29.767Z,9.13
2022-11-05T21:20:01.890Z,13.32
2022-11-05T21:22:53.590Z,9.07
2022-11-05T21:25:30.650Z,9.57
2022-11-05T21:28:05.787Z,6.05
2022-11-05T21:30:49.000Z,7.75
2022-11-05T21:33:21.399Z,10.55
2022-11-05T21:35:49.080Z,11.77
2022-11-05T21:38:17.889Z,13.57
2022-11-05T21:40:46.104Z,13.23
2022-11-05T21:43:14.372Z,11.23
2022-11-05T21:45:44.240Z,14.60
2022-11-05T21:48:15.023Z,12.85
2022-11-05T21:51:01.598Z,12.00
2022-11-05T21:53:47.002Z,16.77
2022-11-05T21:59:35.385Z,9.25
2022-11-05T22:02:03.610Z,9.20
2022-11-05T22:04:37.782Z,14.63
2022-11-05T22:07:14.545Z,10.65
2022-11-05T22:09:41.957Z,13.63
2022-11-05T22:12:11.168Z,10.57
2022-11-05T22:14:38.611Z,13.02
2022-11-05T22:17:06.747Z,20.92
2022-11-05T22:19:34.472Z,15.60
2022-11-05T22:22:01.923Z,9.07
2022-11-05T22:24:30.468Z,11.43
2022-11-05T22:27:02.398Z,12.70
2022-11-05T22:29:29.308Z,13.50
2022-11-05T22:31:57.280Z,8.82
2022-11-05T22:34:25.493Z,15.43
2022-11-05T22:36:52.713Z,8.73
2022-11-05T22:39:20.303Z,13.88
2022-11-05T22:41:47.841Z,11.77
2022-11-05T22:44:17.432Z,9.30
2022-11-05T22:46:44.744Z,11.57
2022-11-05T22:49:12.445Z,11.38
2022-11-05T22:51:40.828Z,7.07
2022-11-05T22:54:09.894Z,8.30
2022-11-05T22:56:40.973Z,8.65
2022-11-05T22:59:15.966Z,13.93
2022-11-05T23:01:56.345Z,10.48
2022-11-05T23:04:27.809Z,9.73
2022-11-05T23:07:17.601Z,8.63
2022-11-05T23:10:05.132Z,11.10
2022-11-05T23:12:37.980Z,7.82
2022-11-05T23:15:18.277Z,9.88
2022-11-05T23:18:03.934Z,10.70
2022-11-05T23:20:49.853Z,11.80
2022-11-05T23:23:36.149Z,6.88
2022-11-05T23:26:23.044Z,9.18
2022-11-05T23:28:50.019Z,8.93
2022-11-05T23:31:36.476Z,7.43
2022-11-05T23:34:06.644Z,7.63
2022-11-05T23:37:02.785Z,13.60
2022-11-05T23:39:29.750Z,10.52
2022-11-05T23:42:17.580Z,12.57
2022-11-05T23:45:03.419Z,14.70
2022-11-05T23:47:48.950Z,5.60
2022-11-05T23:50:16.090Z,8.82
2022-11-05T23:52:42.928Z,8.05
2022-11-05T23:55:09.757Z,6.03
2022-11-05T23:57:37.096Z,6.97
